Time;durP1;ratioP1;P1;durP2;ratioP2;P2;SDS_P1;SDS_P2;PMS_P1;PMS_P2;Temp;Humidity;BMP_temperature;BMP_pressure;BME280_temperature;BME280_humidity;BME280_pressure;Samples;Min_cycle;Max_cycle;Signal;HPM_P1;HPM_P2
2022/07/03 00:01:19;;;;;;;15.98;8.00;;;;;;;;;;5009722;28;20022;-74
2022/07/03 00:03:44;;;;;;;12.82;7.47;;;;;;;;;;5010072;28;20401;-75
2022/07/03 00:06:10;;;;;;;13.52;7.93;;;;;;;;;;5026170;28;20018;-75
2022/07/03 00:08:36;;;;;;;12.93;8.23;;;;;;;;;;5027017;28;20041;-75
2022/07/03 00:11:02;;;;;;;12.15;7.57;;;;;;;;;;5026286;28;20018;-75
2022/07/03 00:13:28;;;;;;;10.15;7.40;;;;;;;;;;5026088;28;20419;-75
2022/07/03 00:15:53;;;;;;;15.95;8.00;;;;;;;;;;5009704;28;20405;-75
2022/07/03 00:18:19;;;;;;;21.30;8.68;;;;;;;;;;5026297;28;20088;-75
2022/07/03 00:21:05;;;;;;;11.70;7.55;;;;;;;;;;5011003;28;20077;-75
2022/07/03 00:23:54;;;;;;;11.93;7.72;;;;;;;;;;5010847;28;20041;-74
2022/07/03 00:26:20;;;;;;;14.65;7.82;;;;;;;;;;5025768;28;20041;-74
2022/07/03 00:28:46;;;;;;;12.85;7.72;;;;;;;;;;5010694;28;20030;-75
2022/07/03 00:31:12;;;;;;;13.00;7.97;;;;;;;;;;5010553;28;20504;-75
2022/07/03 00:33:38;;;;;;;17.80;8.90;;;;;;;;;;5009481;28;20030;-74
2022/07/03 00:36:04;;;;;;;15.55;8.30;;;;;;;;;;5025515;28;20022;-75
2022/07/03 00:38:31;;;;;;;14.43;7.55;;;;;;;;;;5010671;28;20547;-74
2022/07/03 00:40:56;;;;;;;14.55;8.25;;;;;;;;;;5025484;28;20406;-74
2022/07/03 00:43:24;;;;;;;10.38;7.45;;;;;;;;;;5010234;28;20076;-74
2022/07/03 00:45:50;;;;;;;10.85;7.55;;;;;;;;;;5025829;28;20036;-74
2022/07/03 00:48:18;;;;;;;13.00;8.57;;;;;;;;;;5008703;28;20078;-74
2022/07/03 00:50:51;;;;;;;14.32;7.82;;;;;;;;;;5025462;28;20429;-75
2022/07/03 00:53:28;;;;;;;12.25;7.95;;;;;;;;;;5010341;28;20397;-74
2022/07/03 00:55:55;;;;;;;13.10;7.45;;;;;;;;;;5025935;28;20326;-75
2022/07/03 00:58:21;;;;;;;10.80;6.82;;;;;;;;;;5025383;28;20038;-74
2022/07/03 01:00:50;;;;;;;9.65;7.38;;;;;;;;;;5025410;28;20030;-75
2022/07/03 01:03:17;;;;;;;13.20;7.15;;;;;;;;;;5010646;28;20030;-75
2022/07/03 01:05:46;;;;;;;8.52;6.45;;;;;;;;;;5010707;28;20099;-74
2022/07/03 01:08:34;;;;;;;13.30;7.78;;;;;;;;;;5010095;28;20509;-75
2022/07/03 01:11:21;;;;;;;13.73;7.60;;;;;;;;;;5009093;28;20025;-74
2022/07/03 01:14:05;;;;;;;10.65;6.38;;;;;;;;;;5008919;28;20029;-74
2022/07/03 01:16:37;;;;;;;10.77;7.07;;;;;;;;;;5009075;28;20030;-75
2022/07/03 01:19:22;;;;;;;11.15;6.90;;;;;;;;;;5010377;28;20025;-74
2022/07/03 01:21:59;;;;;;;11.07;6.72;;;;;;;;;;5008361;28;20049;-74
2022/07/03 01:24:55;;;;;;;11.93;6.95;;;;;;;;;;5009966;28;20090;-74
2022/07/03 01:27:28;;;;;;;11.90;6.90;;;;;;;;;;5000885;28;20041;-74
2022/07/03 01:30:10;;;;;;;10.35;6.75;;;;;;;;;;5025484;28;20029;-75
2022/07/03 01:32:42;;;;;;;12.23;7.30;;;;;;;;;;5009325;28;20026;-75
2022/07/03 01:35:11;;;;;;;10.73;7.38;;;;;;;;;;5010154;28;20056;-75
2022/07/03 01:37:39;;;;;;;11.55;7.82;;;;;;;;;;5009552;28;20029;-75
2022/07/03 01:40:06;;;;;;;12.35;7.80;;;;;;;;;;5029637;28;20108;-75
2022/07/03 01:42:40;;;;;;;10.60;7.35;;;;;;;;;;5029522;28;20026;-75
2022/07/03 01:45:09;;;;;;;15.32;7.88;;;;;;;;;;5029526;28;20018;-76
2022/07/03 01:47:35;;;;;;;14.85;8.27;;;;;;;;;;5029565;28;20037;-75
2022/07/03 01:50:01;;;;;;;30.98;8.30;;;;;;;;;;5014531;28;20480;-74
2022/07/03 01:52:32;;;;;;;19.63;8.38;;;;;;;;;;5029356;28;20425;-75
2022/07/03 01:55:01;;;;;;;17.07;9.13;;;;;;;;;;5014069;28;20088;-75
2022/07/03 01:57:51;;;;;;;14.18;7.55;;;;;;;;;;5029019;28;20032;-75
2022/07/03 02:00:20;;;;;;;14.57;7.70;;;;;;;;;;5012339;28;20030;-74
2022/07/03 02:02:55;;;;;;;19.13;8.00;;;;;;;;;;5013437;28;20482;-73
2022/07/03 02:05:43;;;;;;;11.07;8.30;;;;;;;;;;5028465;28;20116;-74
2022/07/03 02:08:30;;;;;;;14.65;7.93;;;;;;;;;;5028619;28;20033;-75
2022/07/03 02:11:18;;;;;;;20.10;8.65;;;;;;;;;;5013516;28;20022;-73
2022/07/03 02:14:13;;;;;;;16.85;8.52;;;;;;;;;;5013188;28;20109;-74
2022/07/03 02:16:51;;;;;;;15.43;8.65;;;;;;;;;;5028295;28;20109;-74
2022/07/03 02:19:17;;;;;;;12.73;8.52;;;;;;;;;;5011797;28;20076;-74
2022/07/03 02:21:51;;;;;;;12.25;9.00;;;;;;;;;;5028011;28;20022;-74
2022/07/03 02:24:19;;;;;;;15.00;8.63;;;;;;;;;;4993459;28;20472;-75
2022/07/03 02:27:00;;;;;;;14.65;8.85;;;;;;;;;;4993505;28;20026;-74
2022/07/03 02:29:32;;;;;;;13.98;9.40;;;;;;;;;;5008650;28;20494;-75
2022/07/03 02:32:00;;;;;;;13.30;8.20;;;;;;;;;;4993821;28;20030;-74
2022/07/03 02:34:28;;;;;;;29.05;9.43;;;;;;;;;;5007987;28;20038;-74
2022/07/03 02:36:59;;;;;;;10.48;8.25;;;;;;;;;;5008333;28;20357;-74
2022/07/03 02:39:31;;;;;;;12.70;8.93;;;;;;;;;;5008457;28;20033;-75
2022/07/03 02:42:00;;;;;;;15.38;8.82;;;;;;;;;;4991910;28;20034;-75
2022/07/03 02:44:44;;;;;;;15.02;8.65;;;;;;;;;;5007919;28;20526;-75
2022/07/03 02:47:34;;;;;;;12.63;8.77;;;;;;;;;;5007746;28;20072;-74
2022/07/03 02:50:11;;;;;;;37.75;10.65;;;;;;;;;;4990995;28;20026;-74
2022/07/03 02:52:43;;;;;;;15.43;9.20;;;;;;;;;;4993637;28;20022;-74
2022/07/03 02:55:08;;;;;;;12.90;9.30;;;;;;;;;;4991574;28;20034;-74
2022/07/03 02:57:39;;;;;;;14.02;8.60;;;;;;;;;;4991470;28;20037;-74
2022/07/03 03:00:09;;;;;;;16.40;10.35;;;;;;;;;;4991550;28;20026;-74
2022/07/03 03:02:50;;;;;;;13.35;8.70;;;;;;;;;;5007641;28;20026;-74
2022/07/03 03:05:24;;;;;;;11.63;8.93;;;;;;;;;;4991459;28;20077;-74
2022/07/03 03:08:03;;;;;;;14.45;9.02;;;;;;;;;;4993098;28;20053;-74
2022/07/03 03:10:28;;;;;;;22.52;8.55;;;;;;;;;;4993336;28;20026;-74
2022/07/03 03:13:04;;;;;;;12.93;8.82;;;;;;;;;;5012981;28;20057;-73
2022/07/03 03:15:31;;;;;;;19.30;8.65;;;;;;;;;;4999596;28;20026;-73
2022/07/03 03:18:01;;;;;;;15.93;8.93;;;;;;;;;;5003560;28;20085;-73
2022/07/03 03:20:31;;;;;;;18.77;10.07;;;;;;;;;;5010522;28;20018;-73
2022/07/03 03:23:35;;;;;;;13.20;8.43;;;;;;;;;;5016759;28;20112;-74
2022/07/03 03:26:01;;;;;;;14.02;9.27;;;;;;;;;;5011785;28;20080;-74
2022/07/03 03:28:26;;;;;;;13.25;8.70;;;;;;;;;;5012385;28;20412;-74
2022/07/03 03:30:52;;;;;;;24.15;9.48;;;;;;;;;;5012478;28;20434;-74
2022/07/03 03:33:19;;;;;;;17.05;9.90;;;;;;;;;;5010482;28;20137;-74
2022/07/03 03:35:45;;;;;;;11.85;8.52;;;;;;;;;;5011837;28;20445;-76
2022/07/03 03:38:12;;;;;;;13.93;8.75;;;;;;;;;;5012377;28;20361;-75
2022/07/03 03:40:37;;;;;;;16.20;8.77;;;;;;;;;;5010398;28;20493;-74
2022/07/03 03:43:03;;;;;;;16.45;8.43;;;;;;;;;;5026578;28;20033;-74
2022/07/03 03:45:29;;;;;;;18.92;9.25;;;;;;;;;;5009813;28;20088;-75
2022/07/03 03:47:55;;;;;;;14.48;8.30;;;;;;;;;;5026587;28;20041;-75
2022/07/03 03:50:21;;;;;;;13.45;8.63;;;;;;;;;;5026623;28;20022;-75
2022/07/03 03:52:47;;;;;;;14.55;8.93;;;;;;;;;;5026546;28;20449;-74
2022/07/03 03:55:12;;;;;;;14.10;9.20;;;;;;;;;;5009982;28;20025;-74
2022/07/03 03:57:38;;;;;;;16.00;9.65;;;;;;;;;;5026294;28;20030;-73
2022/07/03 04:00:05;;;;;;;15.05;9.23;;;;;;;;;;5011297;28;20362;-73
2022/07/03 04:02:30;;;;;;;12.55;8.45;;;;;;;;;;5025105;28;20029;-74
2022/07/03 04:04:56;;;;;;;13.30;8.80;;;;;;;;;;5026430;28;20535;-74
2022/07/03 04:07:21;;;;;;;22.77;9.05;;;;;;;;;;5011045;28;20022;-74
2022/07/03 04:09:47;;;;;;;11.95;8.73;;;;;;;;;;5026285;28;20030;-78
2022/07/03 04:12:13;;;;;;;16.85;9.23;;;;;;;;;;5026193;28;20037;-78
2022/07/03 04:14:38;;;;;;;13.40;8.90;;;;;;;;;;5025943;28;20064;-79
2022/07/03 04:17:04;;;;;;;12.68;9.45;;;;;;;;;;5011676;28;20108;-79
2022/07/03 04:19:29;;;;;;;15.57;8.65;;;;;;;;;;5012210;28;20021;-79
2022/07/03 04:21:55;;;;;;;11.52;8.23;;;;;;;;;;5010613;28;20057;-80
2022/07/03 04:24:21;;;;;;;15.30;9.15;;;;;;;;;;5010677;28;20121;-80
2022/07/03 04:26:47;;;;;;;12.32;8.63;;;;;;;;;;5009459;28;20087;-78
2022/07/03 04:29:13;;;;;;;15.77;8.18;;;;;;;;;;5025911;28;20057;-78
2022/07/03 04:31:38;;;;;;;10.85;8.18;;;;;;;;;;5009404;28;20080;-78
2022/07/03 04:34:04;;;;;;;14.60;9.23;;;;;;;;;;5010701;28;20095;-78
2022/07/03 04:36:29;;;;;;;18.02;8.93;;;;;;;;;;5009281;28;20147;-80
2022/07/03 04:38:55;;;;;;;12.13;8.57;;;;;;;;;;5025844;28;20429;-80
2022/07/03 04:41:20;;;;;;;11.63;8.40;;;;;;;;;;5025565;28;20060;-79
2022/07/03 04:43:46;;;;;;;13.10;9.52;;;;;;;;;;5025658;28;20129;-79
2022/07/03 04:46:11;;;;;;;13.52;8.93;;;;;;;;;;5009470;28;20060;-79
2022/07/03 04:48:37;;;;;;;14.48;8.35;;;;;;;;;;5009487;28;20037;-79
2022/07/03 04:51:02;;;;;;;15.80;8.95;;;;;;;;;;5025702;28;20030;-79
2022/07/03 04:53:28;;;;;;;10.88;8.50;;;;;;;;;;5010190;28;20434;-79
2022/07/03 04:55:53;;;;;;;15.38;8.93;;;;;;;;;;5025416;28;20501;-78
2022/07/03 04:58:19;;;;;;;14.80;8.27;;;;;;;;;;5025473;28;20080;-79
2022/07/03 05:00:45;;;;;;;15.15;8.50;;;;;;;;;;5010168;28;20510;-79
2022/07/03 05:03:11;;;;;;;13.07;8.52;;;;;;;;;;5008930;28;20125;-79
2022/07/03 05:05:36;;;;;;;10.60;7.93;;;;;;;;;;5010522;28;20055;-79
2022/07/03 05:08:02;;;;;;;14.27;8.35;;;;;;;;;;5010085;28;20030;-78
2022/07/03 05:10:27;;;;;;;60.42;11.43;;;;;;;;;;5010284;28;20111;-80
2022/07/03 05:12:54;;;;;;;12.82;8.93;;;;;;;;;;5009906;28;20084;-79
2022/07/03 05:15:19;;;;;;;18.05;8.10;;;;;;;;;;5009274;28;20034;-79
2022/07/03 05:17:45;;;;;;;15.23;8.77;;;;;;;;;;5013089;28;20030;-79
2022/07/03 05:20:29;;;;;;;12.25;8.35;;;;;;;;;;5027552;28;20089;-79
2022/07/03 05:22:58;;;;;;;13.32;8.50;;;;;;;;;;5008288;28;20505;-80
2022/07/03 05:25:25;;;;;;;11.80;8.40;;;;;;;;;;5010027;28;20377;-79
2022/07/03 05:27:52;;;;;;;12.13;9.20;;;;;;;;;;5025434;28;20258;-79
2022/07/03 05:30:18;;;;;;;19.15;9.75;;;;;;;;;;5025398;28;20034;-79
2022/07/03 05:32:44;;;;;;;13.73;9.68;;;;;;;;;;5010182;28;20330;-79
2022/07/03 05:35:09;;;;;;;20.42;10.15;;;;;;;;;;5009892;28;20026;-79
2022/07/03 05:37:35;;;;;;;15.50;9.60;;;;;;;;;;5025017;28;20687;-79
2022/07/03 05:40:01;;;;;;;13.55;9.07;;;;;;;;;;5009660;28;20028;-79
2022/07/03 05:42:26;;;;;;;14.88;8.77;;;;;;;;;;5008071;28;20042;-79
2022/07/03 05:44:52;;;;;;;22.35;9.90;;;;;;;;;;5024964;28;20615;-79
2022/07/03 05:47:17;;;;;;;13.32;8.50;;;;;;;;;;5025213;28;20037;-80
2022/07/03 05:49:43;;;;;;;17.23;8.95;;;;;;;;;;5025058;28;20026;-78
2022/07/03 05:52:09;;;;;;;14.88;9.13;;;;;;;;;;5008424;28;20033;-79
2022/07/03 05:54:34;;;;;;;12.77;8.50;;;;;;;;;;5024765;28;20033;-80
2022/07/03 05:56:59;;;;;;;15.18;8.00;;;;;;;;;;5026219;28;20036;-80
2022/07/03 05:59:25;;;;;;;12.98;8.75;;;;;;;;;;5009269;28;20121;-79
2022/07/03 06:01:50;;;;;;;15.27;7.32;;;;;;;;;;5012693;28;20030;-78
2022/07/03 06:04:16;;;;;;;12.48;6.97;;;;;;;;;;5009161;28;20073;-78
2022/07/03 06:06:42;;;;;;;9.75;6.85;;;;;;;;;;5024589;28;20034;-79
2022/07/03 06:09:08;;;;;;;12.15;7.47;;;;;;;;;;5024743;28;20517;-79
2022/07/03 06:11:33;;;;;;;9.63;6.65;;;;;;;;;;5024573;28;20112;-79
2022/07/03 06:13:59;;;;;;;8.25;6.40;;;;;;;;;;5009690;28;20152;-79
2022/07/03 06:16:24;;;;;;;11.25;6.20;;;;;;;;;;5009663;28;20245;-78
2022/07/03 06:18:50;;;;;;;9.70;5.50;;;;;;;;;;5024779;28;20030;-79
2022/07/03 06:21:15;;;;;;;9.40;5.35;;;;;;;;;;5009605;28;20037;-79
2022/07/03 06:23:41;;;;;;;8.27;5.20;;;;;;;;;;5024946;28;20112;-80
2022/07/03 06:26:07;;;;;;;6.65;5.35;;;;;;;;;;5012379;28;20040;-79
2022/07/03 06:28:32;;;;;;;6.53;4.88;;;;;;;;;;5013219;28;20108;-79
2022/07/03 06:30:58;;;;;;;9.40;6.20;;;;;;;;;;5013680;28;20150;-79
2022/07/03 06:33:23;;;;;;;8.88;4.80;;;;;;;;;;5013112;28;20482;-79
2022/07/03 06:35:49;;;;;;;5.65;4.93;;;;;;;;;;5011330;28;20026;-78
2022/07/03 06:38:14;;;;;;;7.57;4.95;;;;;;;;;;5011460;28;20167;-79
2022/07/03 06:40:40;;;;;;;7.90;5.10;;;;;;;;;;5012390;28;20041;-78
2022/07/03 06:43:05;;;;;;;6.60;5.63;;;;;;;;;;5027932;28;20026;-79
2022/07/03 06:45:31;;;;;;;5.65;4.50;;;;;;;;;;5027578;28;20051;-79
2022/07/03 06:47:56;;;;;;;9.35;5.25;;;;;;;;;;5012474;28;20029;-79
2022/07/03 06:50:22;;;;;;;10.32;5.25;;;;;;;;;;5027772;28;20033;-79
2022/07/03 06:52:47;;;;;;;9.07;5.57;;;;;;;;;;5027368;28;20042;-79
2022/07/03 06:55:13;;;;;;;7.07;4.45;;;;;;;;;;5027422;28;20037;-79
2022/07/03 06:57:39;;;;;;;11.32;4.78;;;;;;;;;;5027557;28;20179;-80
2022/07/03 07:00:05;;;;;;;10.13;4.68;;;;;;;;;;5010867;28;20120;-79
2022/07/03 07:02:30;;;;;;;6.10;4.75;;;;;;;;;;5012117;28;20021;-80
2022/07/03 07:04:56;;;;;;;7.30;4.70;;;;;;;;;;5012534;28;20112;-80
2022/07/03 07:07:22;;;;;;;6.20;4.93;;;;;;;;;;5012704;28;20022;-80
2022/07/03 07:09:48;;;;;;;5.75;4.70;;;;;;;;;;5012368;28;20053;-81
2022/07/03 07:12:14;;;;;;;8.38;4.65;;;;;;;;;;5011015;28;20025;-79
2022/07/03 07:14:40;;;;;;;4.28;3.85;;;;;;;;;;5027027;28;20501;-77
2022/07/03 07:17:05;;;;;;;10.45;4.47;;;;;;;;;;5010752;28;20034;-79
2022/07/03 07:19:31;;;;;;;20.88;5.72;;;;;;;;;;5011965;28;20030;-80
2022/07/03 07:21:56;;;;;;;11.45;5.22;;;;;;;;;;5028814;28;20061;-80
2022/07/03 07:24:22;;;;;;;6.90;4.53;;;;;;;;;;5015461;28;20481;-80
2022/07/03 07:26:47;;;;;;;5.05;3.90;;;;;;;;;;5013333;28;20151;-80
2022/07/03 07:29:13;;;;;;;6.15;3.65;;;;;;;;;;5027689;28;20503;-80
2022/07/03 07:31:38;;;;;;;11.63;4.43;;;;;;;;;;5027055;28;20021;-80
2022/07/03 07:34:04;;;;;;;8.95;3.38;;;;;;;;;;5010708;28;20041;-80
2022/07/03 07:36:31;;;;;;;3.33;2.60;;;;;;;;;;5010160;28;20030;-80
2022/07/03 07:38:56;;;;;;;5.53;2.97;;;;;;;;;;5012394;28;20034;-78
2022/07/03 07:41:22;;;;;;;4.82;3.00;;;;;;;;;;5012026;28;20560;-79
2022/07/03 07:43:47;;;;;;;3.00;2.75;;;;;;;;;;5027451;28;20393;-79
2022/07/03 07:46:13;;;;;;;6.15;3.03;;;;;;;;;;5029210;28;20030;-80
2022/07/03 07:48:38;;;;;;;5.30;2.95;;;;;;;;;;5028179;28;20022;-81
2022/07/03 07:51:04;;;;;;;5.18;3.53;;;;;;;;;;5027150;28;20022;-80
2022/07/03 07:53:30;;;;;;;3.60;3.28;;;;;;;;;;5013738;28;20083;-78
2022/07/03 07:55:56;;;;;;;5.28;3.97;;;;;;;;;;5029616;28;20437;-82
2022/07/03 07:58:22;;;;;;;4.78;3.63;;;;;;;;;;5029032;28;20026;-80
2022/07/03 08:06:16;;;;;;;8.02;3.50;;;;;;;;;;5020927;28;20036;-80
2022/07/03 08:08:43;;;;;;;5.43;3.45;;;;;;;;;;5024536;28;20049;-80
2022/07/03 08:11:08;;;;;;;4.20;3.80;;;;;;;;;;5026735;28;20481;-78
2022/07/03 08:13:34;;;;;;;4.97;3.28;;;;;;;;;;5042478;28;20128;-79
2022/07/03 08:16:00;;;;;;;5.63;3.70;;;;;;;;;;5044429;28;20084;-78
2022/07/03 08:18:25;;;;;;;5.25;3.60;;;;;;;;;;5030512;28;20084;-79
2022/07/03 08:20:51;;;;;;;5.10;3.30;;;;;;;;;;5027397;28;20022;-80
2022/07/03 08:23:16;;;;;;;3.22;2.80;;;;;;;;;;5022253;28;20048;-80
2022/07/03 08:25:42;;;;;;;5.95;3.60;;;;;;;;;;5036890;28;20089;-80
2022/07/03 08:28:07;;;;;;;4.68;3.60;;;;;;;;;;5013583;28;20029;-80
2022/07/03 08:30:33;;;;;;;7.07;3.15;;;;;;;;;;5028493;28;20014;-81
2022/07/03 08:32:59;;;;;;;3.35;2.90;;;;;;;;;;5014799;28;20026;-79
2022/07/03 08:35:25;;;;;;;4.47;3.20;;;;;;;;;;5028614;28;20565;-79
2022/07/03 08:37:51;;;;;;;5.05;3.42;;;;;;;;;;5026837;28;20025;-79
2022/07/03 08:40:19;;;;;;;5.20;2.95;;;;;;;;;;5026138;28;20029;-80
2022/07/03 08:42:57;;;;;;;4.15;3.17;;;;;;;;;;5026085;28;20088;-79
2022/07/03 08:45:25;;;;;;;3.97;2.97;;;;;;;;;;5025983;28;20026;-79
2022/07/03 08:47:54;;;;;;;3.90;3.00;;;;;;;;;;5025191;28;20042;-79
2022/07/03 08:50:19;;;;;;;4.40;2.67;;;;;;;;;;5025842;28;20080;-79
2022/07/03 08:52:47;;;;;;;5.80;3.60;;;;;;;;;;5025802;28;20030;-81
2022/07/03 08:55:13;;;;;;;4.47;3.28;;;;;;;;;;5009235;28;20021;-80
2022/07/03 08:57:41;;;;;;;3.50;3.20;;;;;;;;;;5010260;28;20490;-80
2022/07/03 09:00:10;;;;;;;3.03;2.72;;;;;;;;;;5010119;28;20038;-81
2022/07/03 09:02:35;;;;;;;4.10;3.03;;;;;;;;;;5009405;28;20030;-79
2022/07/03 09:05:02;;;;;;;3.10;2.80;;;;;;;;;;5010680;28;20022;-79
2022/07/03 09:07:29;;;;;;;3.72;3.08;;;;;;;;;;5009004;28;20080;-80
2022/07/03 09:09:55;;;;;;;6.88;2.88;;;;;;;;;;5010214;28;20022;-80
2022/07/03 09:12:21;;;;;;;4.80;2.90;;;;;;;;;;5025202;28;20160;-78
2022/07/03 09:14:46;;;;;;;6.78;3.38;;;;;;;;;;5008920;28;20038;-79
2022/07/03 09:17:12;;;;;;;6.13;3.38;;;;;;;;;;5025132;28;20021;-82
2022/07/03 09:19:47;;;;;;;4.30;3.10;;;;;;;;;;5025112;28;20033;-80
2022/07/03 09:22:27;;;;;;;5.45;3.00;;;;;;;;;;5005470;28;20050;-79
2022/07/03 09:25:08;;;;;;;4.77;2.83;;;;;;;;;;5005549;28;20121;-79
2022/07/03 09:27:35;;;;;;;3.63;2.80;;;;;;;;;;4996145;28;20077;-77
2022/07/03 09:30:06;;;;;;;3.13;2.83;;;;;;;;;;5007908;28;20056;-79
2022/07/03 09:32:43;;;;;;;2.97;2.58;;;;;;;;;;5006145;28;20473;-76
2022/07/03 09:35:23;;;;;;;3.53;2.70;;;;;;;;;;4990711;28;20022;-76
2022/07/03 09:37:49;;;;;;;2.70;2.50;;;;;;;;;;5005614;28;20040;-76
2022/07/03 09:40:14;;;;;;;3.85;2.67;;;;;;;;;;4990141;28;20053;-76
2022/07/03 09:42:40;;;;;;;4.07;3.22;;;;;;;;;;5004834;28;20034;-76
2022/07/03 09:45:05;;;;;;;4.35;2.80;;;;;;;;;;5005570;28;20113;-76
2022/07/03 09:47:31;;;;;;;4.18;2.85;;;;;;;;;;5005021;28;20080;-76
2022/07/03 09:50:05;;;;;;;5.68;3.72;;;;;;;;;;4988273;28;20121;-76
2022/07/03 09:53:00;;;;;;;6.43;3.42;;;;;;;;;;5004981;28;20347;-76
2022/07/03 09:55:26;;;;;;;8.05;2.90;;;;;;;;;;4989463;28;20034;-76
2022/07/03 09:57:52;;;;;;;4.13;2.75;;;;;;;;;;5004822;28;20363;-76
2022/07/03 10:00:22;;;;;;;3.92;3.15;;;;;;;;;;5007964;28;20031;-77
2022/07/03 10:02:53;;;;;;;5.45;2.92;;;;;;;;;;5008592;28;20099;-77
2022/07/03 10:05:21;;;;;;;4.30;3.03;;;;;;;;;;4993971;28;20482;-77
2022/07/03 10:07:51;;;;;;;7.75;3.10;;;;;;;;;;4993704;28;20061;-77
2022/07/03 10:10:18;;;;;;;5.63;3.00;;;;;;;;;;4993816;28;20332;-78
2022/07/03 10:12:44;;;;;;;5.05;3.25;;;;;;;;;;5008698;28;20389;-78
2022/07/03 10:15:11;;;;;;;3.28;2.80;;;;;;;;;;5008873;28;20029;-78
2022/07/03 10:17:37;;;;;;;3.35;3.05;;;;;;;;;;5008071;28;20116;-77
2022/07/03 10:20:03;;;;;;;3.75;3.45;;;;;;;;;;5008467;28;20113;-77
2022/07/03 10:22:32;;;;;;;3.33;2.40;;;;;;;;;;4998778;28;20642;-78
2022/07/03 10:24:59;;;;;;;4.68;3.03;;;;;;;;;;5027320;28;20405;-77
2022/07/03 10:27:27;;;;;;;4.18;3.10;;;;;;;;;;5028257;28;20017;-79
2022/07/03 10:29:54;;;;;;;6.25;2.60;;;;;;;;;;5011570;28;20549;-77
2022/07/03 10:32:21;;;;;;;3.30;3.00;;;;;;;;;;5012881;28;20117;-79
2022/07/03 10:34:47;;;;;;;3.35;3.05;;;;;;;;;;5028150;28;20037;-81
2022/07/03 10:37:17;;;;;;;3.33;2.90;;;;;;;;;;5013568;28;20036;-79
2022/07/03 10:46:11;;;;;;;3.15;2.70;;;;;;;;;;5012711;28;20041;-79
2022/07/03 10:48:55;;;;;;;2.88;2.67;;;;;;;;;;4998615;28;20033;-77
2022/07/03 10:51:22;;;;;;;4.07;2.67;;;;;;;;;;5011174;28;20025;-78
2022/07/03 10:53:48;;;;;;;3.35;2.70;;;;;;;;;;5027617;28;20025;-79
2022/07/03 10:56:14;;;;;;;3.97;2.83;;;;;;;;;;5011055;28;20335;-77
2022/07/03 10:58:58;;;;;;;3.58;2.95;;;;;;;;;;5027629;28;20032;-78
2022/07/03 11:01:30;;;;;;;4.80;2.65;;;;;;;;;;5012860;28;20025;-78
2022/07/03 11:04:00;;;;;;;3.13;2.80;;;;;;;;;;5011032;28;20087;-76
2022/07/03 11:06:44;;;;;;;5.28;3.08;;;;;;;;;;5027919;28;20397;-79
2022/07/03 11:09:14;;;;;;;5.38;2.92;;;;;;;;;;5011216;28;20039;-79
2022/07/03 11:11:56;;;;;;;2.75;2.50;;;;;;;;;;5011793;28;20053;-78
2022/07/03 11:14:23;;;;;;;3.50;2.75;;;;;;;;;;5010397;28;20569;-78
2022/07/03 11:16:49;;;;;;;4.78;2.88;;;;;;;;;;5010903;28;20505;-77
2022/07/03 11:19:25;;;;;;;3.50;2.95;;;;;;;;;;5027160;28;20041;-78
2022/07/03 11:21:58;;;;;;;5.65;4.50;;;;;;;;;;5011687;28;20053;-76
2022/07/03 11:24:29;;;;;;;4.28;2.88;;;;;;;;;;5027359;28;20030;-78
2022/07/03 11:27:21;;;;;;;3.35;2.55;;;;;;;;;;5012603;28;20421;-77
2022/07/03 11:29:55;;;;;;;3.67;3.05;;;;;;;;;;5012076;28;20022;-80
2022/07/03 11:32:57;;;;;;;2.78;2.55;;;;;;;;;;5013251;28;20036;-78
2022/07/03 11:35:51;;;;;;;4.13;2.35;;;;;;;;;;4996405;28;20477;-77
2022/07/03 11:38:29;;;;;;;5.38;2.72;;;;;;;;;;5011873;28;20529;-78
2022/07/03 11:40:58;;;;;;;4.22;3.00;;;;;;;;;;5011635;28;20037;-78
2022/07/03 11:43:24;;;;;;;2.75;2.55;;;;;;;;;;5026940;28;20573;-78
2022/07/03 11:45:50;;;;;;;4.65;2.50;;;;;;;;;;5011496;28;20417;-78
2022/07/03 11:48:23;;;;;;;2.85;2.65;;;;;;;;;;5011659;28;20025;-78
2022/07/03 11:50:50;;;;;;;2.67;2.47;;;;;;;;;;5010146;28;20053;-77
2022/07/03 11:53:21;;;;;;;6.07;2.67;;;;;;;;;;5011684;28;20021;-77
2022/07/03 11:55:51;;;;;;;3.53;2.60;;;;;;;;;;5011707;28;20076;-78
2022/07/03 11:58:17;;;;;;;3.73;3.10;;;;;;;;;;5026736;28;20026;-79
2022/07/03 12:00:43;;;;;;;8.65;2.53;;;;;;;;;;5026232;28;20468;-78
2022/07/03 12:03:14;;;;;;;2.85;2.65;;;;;;;;;;5011258;28;20113;-77
2022/07/03 12:05:50;;;;;;;4.65;2.75;;;;;;;;;;5011516;28;20030;-77
2022/07/03 12:08:21;;;;;;;4.03;2.70;;;;;;;;;;5011427;28;20033;-79
2022/07/03 12:10:47;;;;;;;3.63;2.75;;;;;;;;;;5026335;28;20100;-78
2022/07/03 12:13:23;;;;;;;3.78;2.60;;;;;;;;;;5026656;28;20202;-81
2022/07/03 12:15:48;;;;;;;2.88;2.35;;;;;;;;;;5009769;28;20026;-80
2022/07/03 12:18:19;;;;;;;3.10;2.72;;;;;;;;;;5026480;28;20560;-80
2022/07/03 12:20:44;;;;;;;2.63;2.20;;;;;;;;;;5010421;28;20445;-80
2022/07/03 12:23:10;;;;;;;4.13;2.80;;;;;;;;;;5010272;28;20056;-79
2022/07/03 12:25:43;;;;;;;2.75;1.98;;;;;;;;;;5026526;28;20048;-79
2022/07/03 12:28:10;;;;;;;2.45;2.25;;;;;;;;;;5026426;28;20025;-80
2022/07/03 12:30:37;;;;;;;4.95;2.40;;;;;;;;;;5026448;28;20028;-81
2022/07/03 12:33:04;;;;;;;4.68;2.30;;;;;;;;;;5026329;28;20026;-81
2022/07/03 12:35:29;;;;;;;2.40;2.20;;;;;;;;;;5027227;28;20099;-80
2022/07/03 12:37:55;;;;;;;2.90;1.90;;;;;;;;;;5011450;28;20241;-79
2022/07/03 12:40:21;;;;;;;3.35;1.80;;;;;;;;;;5027237;28;20062;-80
2022/07/03 12:42:48;;;;;;;2.85;2.42;;;;;;;;;;5012866;28;20238;-81
2022/07/03 12:45:16;;;;;;;2.83;1.98;;;;;;;;;;5026464;28;20452;-80
2022/07/03 12:47:42;;;;;;;2.40;2.15;;;;;;;;;;5025916;28;20139;-77
2022/07/03 12:50:11;;;;;;;3.47;2.17;;;;;;;;;;5010388;28;20105;-77
2022/07/03 12:52:55;;;;;;;6.57;2.60;;;;;;;;;;5010504;28;20022;-76
2022/07/03 12:55:25;;;;;;;2.17;2.03;;;;;;;;;;5009672;28;20021;-77
2022/07/03 13:00:57;;;;;;;1.77;1.50;;;;;;;;;;5010357;28;20088;-76
2022/07/03 13:03:30;;;;;;;2.17;1.90;;;;;;;;;;5010998;28;20029;-75
2022/07/03 13:05:55;;;;;;;1.85;1.67;;;;;;;;;;5026649;28;20026;-76
2022/07/03 13:08:21;;;;;;;8.05;1.70;;;;;;;;;;5043803;28;20033;-75
2022/07/03 13:10:59;;;;;;;6.40;2.05;;;;;;;;;;5029768;28;20022;-76
2022/07/03 13:13:25;;;;;;;3.05;2.33;;;;;;;;;;5044699;28;20026;-76
2022/07/03 13:15:51;;;;;;;2.05;1.80;;;;;;;;;;5041988;28;20056;-77
2022/07/03 13:18:17;;;;;;;3.58;1.90;;;;;;;;;;5011217;28;20053;-77
2022/07/03 13:20:43;;;;;;;6.75;1.73;;;;;;;;;;5011146;28;20505;-76
2022/07/03 13:23:08;;;;;;;2.10;1.90;;;;;;;;;;5009614;28;20545;-76
2022/07/03 13:25:39;;;;;;;1.77;1.50;;;;;;;;;;5010448;28;20033;-76
2022/07/03 13:28:11;;;;;;;4.35;1.80;;;;;;;;;;5025091;28;20084;-76
2022/07/03 13:30:37;;;;;;;1.90;1.50;;;;;;;;;;5025129;28;20025;-77
2022/07/03 13:33:04;;;;;;;7.05;2.00;;;;;;;;;;5024926;28;20029;-77
2022/07/03 13:35:29;;;;;;;1.88;1.73;;;;;;;;;;5015883;28;20052;-75
2022/07/03 13:37:56;;;;;;;2.00;1.90;;;;;;;;;;5015053;28;20486;-75
2022/07/03 13:40:22;;;;;;;3.33;1.65;;;;;;;;;;5016037;28;20148;-77
2022/07/03 13:42:48;;;;;;;2.40;1.95;;;;;;;;;;5031590;28;20590;-76
2022/07/03 13:45:13;;;;;;;4.55;1.90;;;;;;;;;;5016330;28;20029;-77
2022/07/03 13:47:39;;;;;;;2.30;1.80;;;;;;;;;;5031421;28;20555;-77
2022/07/03 13:50:05;;;;;;;1.98;1.88;;;;;;;;;;5016189;28;20421;-77
2022/07/03 13:52:30;;;;;;;1.80;1.70;;;;;;;;;;5016415;28;20096;-76
2022/07/03 13:54:56;;;;;;;3.05;1.52;;;;;;;;;;5016043;28;20053;-77
2022/07/03 13:57:21;;;;;;;3.33;1.80;;;;;;;;;;5016195;28;20022;-77
2022/07/03 13:59:48;;;;;;;2.45;1.70;;;;;;;;;;5031504;28;20068;-78
2022/07/03 14:02:14;;;;;;;2.70;1.67;;;;;;;;;;5014933;28;20482;-76
2022/07/03 14:04:39;;;;;;;2.35;1.60;;;;;;;;;;5014953;28;20044;-77
2022/07/03 14:07:05;;;;;;;2.85;1.80;;;;;;;;;;5016659;28;20030;-77
2022/07/03 14:09:30;;;;;;;2.15;1.73;;;;;;;;;;5014675;28;20026;-78
2022/07/03 14:11:56;;;;;;;5.40;2.17;;;;;;;;;;5030781;28;20052;-76
2022/07/03 14:14:22;;;;;;;2.45;1.67;;;;;;;;;;5015848;28;20033;-76
2022/07/03 14:16:48;;;;;;;2.03;1.67;;;;;;;;;;5015902;28;20025;-77
2022/07/03 14:19:13;;;;;;;2.30;1.73;;;;;;;;;;5015560;28;20466;-76
2022/07/03 14:21:39;;;;;;;3.65;1.98;;;;;;;;;;5015305;28;20373;-77
2022/07/03 14:24:04;;;;;;;2.00;1.80;;;;;;;;;;5010747;28;20486;-77
2022/07/03 14:34:42;;;;;;;5.75;1.77;;;;;;;;;;4996234;28;20041;-77
2022/07/03 14:37:08;;;;;;;1.65;1.55;;;;;;;;;;5010945;28;20034;-77
2022/07/03 14:39:34;;;;;;;2.38;1.58;;;;;;;;;;4996174;28;20026;-77
2022/07/03 14:42:00;;;;;;;2.03;1.58;;;;;;;;;;4996003;28;20419;-77
2022/07/03 14:44:26;;;;;;;1.50;1.40;;;;;;;;;;4996151;28;20030;-77
2022/07/03 14:46:52;;;;;;;1.48;1.38;;;;;;;;;;5007339;28;20022;-77
2022/07/03 14:49:19;;;;;;;4.55;1.40;;;;;;;;;;4993263;28;20030;-76
2022/07/03 14:51:44;;;;;;;8.88;2.80;;;;;;;;;;5007928;28;20394;-77
2022/07/03 14:54:10;;;;;;;3.00;1.58;;;;;;;;;;5007596;28;20029;-76
2022/07/03 14:56:44;;;;;;;3.92;1.98;;;;;;;;;;5007818;28;20105;-76
2022/07/03 14:59:10;;;;;;;3.13;1.80;;;;;;;;;;5007762;28;20038;-77
2022/07/03 15:01:40;;;;;;;1.58;1.48;;;;;;;;;;4992670;28;20025;-78
2022/07/03 15:04:19;;;;;;;3.83;1.80;;;;;;;;;;4993017;28;20035;-77
2022/07/03 15:06:48;;;;;;;3.22;1.67;;;;;;;;;;4992894;28;20077;-75
2022/07/03 15:09:20;;;;;;;2.20;1.63;;;;;;;;;;5007322;28;20030;-77
2022/07/03 15:14:43;;;;;;;2.25;1.88;;;;;;;;;;4992561;28;20100;-77